Time;durP1;ratioP1;P1;durP2;ratioP2;P2;SDS_P1;SDS_P2;PMS_P1;PMS_P2;Temp;Humidity;BMP_temperature;BMP_pressure;BME280_temperature;BME280_humidity;BME280_pressure;Samples;Min_cycle;Max_cycle;Signal;HPM_P1;HPM_P2
2022/04/02 00:00:50;;;;;;;6.28;2.47;;;13.40;99.30;;;;;;4718476;30;20408;-79
2022/04/02 00:03:19;;;;;;;3.90;1.98;;;13.40;99.10;;;;;;4726075;30;20467;-80
2022/04/02 00:05:47;;;;;;;5.35;2.53;;;13.50;99.10;;;;;;4729143;30;20040;-81
2022/04/02 00:08:15;;;;;;;3.35;1.90;;;13.40;99.10;;;;;;4730402;30;20534;-80
2022/04/02 00:10:42;;;;;;;5.50;1.80;;;13.50;99.10;;;;;;4728359;30;20052;-79
2022/04/02 00:13:10;;;;;;;5.25;1.83;;;13.40;99.10;;;;;;4727708;30;20049;-79
2022/04/02 00:15:38;;;;;;;5.55;2.95;;;13.50;99.20;;;;;;4699635;30;20156;-79
2022/04/02 00:18:05;;;;;;;6.72;2.35;;;13.60;99.30;;;;;;4726720;30;20053;-80
2022/04/02 00:20:33;;;;;;;4.53;1.50;;;13.60;99.10;;;;;;4718268;30;20086;-79
2022/04/02 00:25:46;;;;;;;5.32;2.10;;;13.50;99.30;;;;;;4730156;30;20385;-79
2022/04/02 00:28:13;;;;;;;3.00;1.63;;;13.50;99.60;;;;;;4712565;30;20503;-79
2022/04/02 00:30:41;;;;;;;7.68;2.13;;;13.50;99.80;;;;;;4729382;30;20080;-79
2022/04/02 00:33:10;;;;;;;4.65;2.10;;;13.60;99.90;;;;;;4727994;30;20059;-78
2022/04/02 00:35:38;;;;;;;7.57;2.20;;;13.60;99.90;;;;;;4714674;30;20044;-79
2022/04/02 00:38:07;;;;;;;7.75;2.67;;;13.50;99.90;;;;;;4707768;30;20055;-79
2022/04/02 00:40:37;;;;;;;4.72;1.70;;;13.50;99.90;;;;;;4728000;30;20049;-78
2022/04/02 00:43:05;;;;;;;6.43;1.73;;;13.50;99.90;;;;;;4716990;30;20597;-78
2022/04/02 00:45:34;;;;;;;5.13;2.88;;;13.40;99.90;;;;;;4714954;30;20147;-80
2022/04/02 00:48:01;;;;;;;5.57;1.95;;;13.40;99.90;;;;;;4706407;30;20095;-79
2022/04/02 00:50:29;;;;;;;8.77;3.50;;;13.20;99.90;;;;;;4727466;30;20057;-78
2022/04/02 00:53:01;;;;;;;6.00;2.78;;;13.00;99.90;;;;;;4711477;30;20078;-78
2022/04/02 00:55:30;;;;;;;3.90;1.85;;;12.80;99.90;;;;;;4700049;30;20563;-78
2022/04/02 00:58:00;;;;;;;6.25;2.50;;;12.70;99.90;;;;;;4709772;30;20053;-79
2022/04/02 01:00:27;;;;;;;4.72;1.55;;;12.70;99.90;;;;;;4710251;30;20061;-80
2022/04/02 01:02:56;;;;;;;9.25;3.05;;;12.60;99.90;;;;;;4724916;30;20055;-79
2022/04/02 01:05:24;;;;;;;4.60;1.80;;;12.70;99.90;;;;;;4717964;30;20049;-77
2022/04/02 01:07:53;;;;;;;5.20;2.20;;;12.60;99.90;;;;;;4715091;30;22030;-79
2022/04/02 01:10:20;;;;;;;4.43;1.73;;;12.70;99.90;;;;;;4701991;30;20060;-77
2022/04/02 01:12:50;;;;;;;4.45;2.20;;;12.70;99.90;;;;;;4727123;30;20069;-77
2022/04/02 01:15:17;;;;;;;4.72;2.03;;;12.80;99.90;;;;;;4717964;30;20123;-77
2022/04/02 01:17:50;;;;;;;7.95;3.08;;;12.90;99.90;;;;;;4704711;30;20064;-78
2022/04/02 01:20:29;;;;;;;4.72;1.85;;;13.00;99.90;;;;;;4733548;30;20279;-76
2022/04/02 01:23:00;;;;;;;6.30;2.63;;;12.90;99.90;;;;;;4704179;30;20053;-77
2022/04/02 01:25:32;;;;;;;8.68;2.15;;;12.90;99.90;;;;;;4717825;30;20048;-78
2022/04/02 01:28:05;;;;;;;11.32;2.55;;;12.80;99.90;;;;;;4718209;30;20056;-81
2022/04/02 01:30:34;;;;;;;6.85;2.22;;;12.70;99.90;;;;;;4732575;30;20048;-77
2022/04/02 01:33:03;;;;;;;4.85;2.90;;;12.70;99.90;;;;;;4718243;30;20052;-77
2022/04/02 01:35:31;;;;;;;9.95;3.38;;;12.60;99.90;;;;;;4704197;30;20994;-77
2022/04/02 01:38:25;;;;;;;7.35;2.97;;;12.50;99.90;;;;;;4733733;30;20061;-77
2022/04/02 01:40:53;;;;;;;4.75;2.25;;;12.50;99.90;;;;;;4704596;30;20052;-78
2022/04/02 01:43:27;;;;;;;6.45;3.17;;;12.40;99.90;;;;;;4733746;30;20060;-77
2022/04/02 01:45:59;;;;;;;9.93;3.05;;;12.40;99.90;;;;;;4719119;30;20525;-78
2022/04/02 01:48:31;;;;;;;8.88;3.15;;;12.40;99.90;;;;;;4705014;30;20067;-77
2022/04/02 01:51:03;;;;;;;7.07;3.25;;;12.40;99.90;;;;;;4719869;30;20053;-77
2022/04/02 01:53:31;;;;;;;9.68;2.65;;;12.30;99.90;;;;;;4704295;30;20067;-77
2022/04/02 01:56:02;;;;;;;7.47;2.85;;;12.20;99.90;;;;;;4720011;30;20057;-77
2022/04/02 01:58:37;;;;;;;7.05;3.50;;;12.20;99.90;;;;;;4706153;30;20462;-77
2022/04/02 02:01:09;;;;;;;14.05;3.80;;;12.10;99.90;;;;;;4718975;30;20061;-76
2022/04/02 02:03:39;;;;;;;6.28;2.80;;;12.20;99.90;;;;;;4718772;30;20496;-77
2022/04/02 02:06:07;;;;;;;7.65;3.95;;;12.10;99.90;;;;;;4732808;30;20052;-78
2022/04/02 02:08:39;;;;;;;8.43;2.42;;;12.20;99.90;;;;;;4701884;30;20045;-77
2022/04/02 02:11:26;;;;;;;14.93;5.00;;;12.20;99.90;;;;;;4715985;30;20053;-77
2022/04/02 02:14:12;;;;;;;10.95;2.90;;;12.20;99.90;;;;;;4715185;30;20079;-77
2022/04/02 02:16:44;;;;;;;7.20;4.20;;;12.30;99.90;;;;;;4701549;30;20061;-78
2022/04/02 02:19:12;;;;;;;11.10;4.28;;;12.30;99.90;;;;;;4715388;30;20055;-77
2022/04/02 02:21:40;;;;;;;8.00;3.00;;;12.40;99.90;;;;;;4716085;30;20061;-78
2022/04/02 02:24:16;;;;;;;11.60;3.33;;;12.40;99.90;;;;;;4729116;30;20061;-77
2022/04/02 02:26:44;;;;;;;10.07;3.97;;;12.30;99.90;;;;;;4701401;30;20084;-77
2022/04/02 02:29:19;;;;;;;9.95;2.65;;;12.30;99.90;;;;;;4715056;30;20067;-77
2022/04/02 02:31:47;;;;;;;10.30;4.38;;;12.30;99.90;;;;;;4716912;30;20123;-77
2022/04/02 02:37:06;;;;;;;12.73;3.67;;;12.30;99.90;;;;;;4715616;30;20057;-78
2022/04/02 02:39:37;;;;;;;9.85;3.58;;;12.30;99.90;;;;;;4701837;30;20128;-77
2022/04/02 02:42:15;;;;;;;11.93;2.90;;;12.30;99.90;;;;;;4701023;30;20053;-77
2022/04/02 02:44:50;;;;;;;12.55;3.55;;;12.30;99.90;;;;;;4715347;30;20159;-78
2022/04/02 02:47:21;;;;;;;11.43;3.97;;;12.40;99.90;;;;;;4715335;30;20075;-79
2022/04/02 02:49:50;;;;;;;5.97;2.30;;;12.40;99.90;;;;;;4715074;30;20049;-77
2022/04/02 02:52:25;;;;;;;12.53;4.40;;;12.30;99.90;;;;;;4700532;30;20059;-77
2022/04/02 02:54:55;;;;;;;9.13;3.92;;;12.30;99.90;;;;;;4701030;30;20107;-77
2022/04/02 02:57:24;;;;;;;8.68;4.50;;;12.30;99.90;;;;;;4715463;30;20057;-76
2022/04/02 02:59:54;;;;;;;11.77;3.60;;;12.30;99.90;;;;;;4714992;30;20107;-78
2022/04/02 03:02:22;;;;;;;11.02;3.40;;;12.40;99.90;;;;;;4704841;30;20071;-77
2022/04/02 03:04:55;;;;;;;6.53;3.05;;;12.40;99.90;;;;;;4714892;30;20067;-77
2022/04/02 03:07:38;;;;;;;12.52;3.33;;;12.40;99.90;;;;;;4700485;30;20057;-78
2022/04/02 03:10:10;;;;;;;7.60;3.05;;;12.40;99.90;;;;;;4713813;30;20059;-77
2022/04/02 03:12:38;;;;;;;6.35;3.10;;;12.50;99.90;;;;;;4732548;30;20452;-77
2022/04/02 03:15:06;;;;;;;10.02;4.00;;;12.50;99.90;;;;;;4718111;30;20492;-77
2022/04/02 03:17:35;;;;;;;8.43;3.72;;;12.50;99.90;;;;;;4732130;30;20080;-77
2022/04/02 03:20:07;;;;;;;9.27;4.65;;;12.50;99.90;;;;;;4717567;30;20063;-78
2022/04/02 03:22:39;;;;;;;5.88;3.45;;;12.50;99.90;;;;;;4733505;30;20049;-76
2022/04/02 03:25:11;;;;;;;11.45;3.70;;;12.50;99.90;;;;;;4732789;30;20049;-77
2022/04/02 03:27:40;;;;;;;8.50;3.85;;;12.50;99.90;;;;;;4716606;30;20067;-78
2022/04/02 03:30:09;;;;;;;17.02;4.43;;;12.50;99.90;;;;;;4717008;30;20143;-78
2022/04/02 03:32:38;;;;;;;11.65;4.53;;;12.50;99.90;;;;;;4732195;30;20504;-77
2022/04/02 03:35:08;;;;;;;10.25;4.82;;;12.50;99.90;;;;;;4703298;30;20075;-78
2022/04/02 03:37:37;;;;;;;9.25;3.50;;;12.50;99.90;;;;;;4717813;30;20064;-79
2022/04/02 03:40:09;;;;;;;5.80;3.35;;;12.50;99.90;;;;;;4731432;30;20049;-80
2022/04/02 03:42:37;;;;;;;8.75;3.80;;;12.50;99.90;;;;;;4703529;30;20088;-77
2022/04/02 03:45:10;;;;;;;14.98;5.50;;;12.50;99.90;;;;;;4717588;30;20068;-77
2022/04/02 03:47:43;;;;;;;6.18;4.20;;;12.40;99.90;;;;;;4731887;30;20128;-77
2022/04/02 03:50:12;;;;;;;12.77;3.47;;;12.50;99.90;;;;;;4717184;30;20501;-76
2022/04/02 03:52:46;;;;;;;10.30;4.25;;;12.40;99.90;;;;;;4717334;30;20099;-77
2022/04/02 03:55:19;;;;;;;14.57;5.10;;;12.40;99.90;;;;;;4731880;30;20052;-77
2022/04/02 03:57:49;;;;;;;9.73;4.55;;;12.30;99.90;;;;;;4717384;30;20484;-77
2022/04/02 04:00:20;;;;;;;14.20;4.25;;;12.30;99.90;;;;;;4731747;30;20052;-77
2022/04/02 04:03:02;;;;;;;13.60;5.43;;;12.30;99.90;;;;;;4717176;30;20064;-77
2022/04/02 04:05:36;;;;;;;10.90;5.53;;;12.30;99.90;;;;;;4701842;30;20056;-77
2022/04/02 04:08:05;;;;;;;13.45;3.67;;;12.30;99.90;;;;;;4731381;30;20148;-77
2022/04/02 04:10:35;;;;;;;6.88;2.63;;;12.30;99.90;;;;;;4717317;30;20203;-77
2022/04/02 04:13:02;;;;;;;8.68;2.95;;;12.40;99.90;;;;;;4717714;30;20064;-77
2022/04/02 04:15:33;;;;;;;5.85;2.30;;;12.40;99.90;;;;;;4731053;30;20525;-79
2022/04/02 04:18:03;;;;;;;3.92;2.10;;;12.50;99.90;;;;;;4731571;30;20083;-77
2022/04/02 04:20:35;;;;;;;5.15;2.05;;;12.50;99.90;;;;;;4716978;30;20053;-77
2022/04/02 04:23:05;;;;;;;11.27;1.90;;;12.60;99.90;;;;;;4731280;30;20049;-76
2022/04/02 04:25:34;;;;;;;2.40;1.77;;;12.60;99.90;;;;;;4717219;30;20408;-77
2022/04/02 04:28:03;;;;;;;5.85;1.85;;;12.50;99.90;;;;;;4716905;30;20141;-78
2022/04/02 04:30:32;;;;;;;5.53;1.50;;;12.50;99.90;;;;;;4702528;30;20061;-77
2022/04/02 04:33:00;;;;;;;4.28;1.92;;;12.60;99.90;;;;;;4717199;30;20053;-76
2022/04/02 04:35:30;;;;;;;7.18;1.88;;;12.50;99.90;;;;;;4733044;30;20063;-76
2022/04/02 04:37:57;;;;;;;9.55;2.78;;;12.40;99.90;;;;;;4716782;30;20063;-77
2022/04/02 04:40:30;;;;;;;7.00;1.63;;;12.50;99.90;;;;;;4717293;30;20144;-77
2022/04/02 04:42:59;;;;;;;5.28;2.42;;;12.50;99.90;;;;;;4702600;30;20068;-76
2022/04/02 04:45:35;;;;;;;7.32;2.95;;;12.40;99.90;;;;;;4732909;30;20044;-77
2022/04/02 04:48:04;;;;;;;3.95;2.58;;;12.30;99.90;;;;;;4731344;30;20501;-76
2022/04/02 04:50:38;;;;;;;5.32;2.30;;;12.30;99.90;;;;;;4717239;30;20067;-77
2022/04/02 04:53:06;;;;;;;4.50;3.20;;;12.30;99.90;;;;;;4702324;30;20083;-77
2022/04/02 04:55:33;;;;;;;3.72;2.30;;;12.30;99.90;;;;;;4716833;30;20063;-77
2022/04/02 04:58:02;;;;;;;4.75;2.70;;;12.40;99.90;;;;;;4702115;30;20064;-76
2022/04/02 05:00:32;;;;;;;6.47;2.05;;;12.30;99.90;;;;;;4716632;30;20524;-78
2022/04/02 05:03:00;;;;;;;5.63;3.10;;;12.40;99.90;;;;;;4730903;30;20103;-77
2022/04/02 05:05:38;;;;;;;12.35;2.55;;;12.40;99.90;;;;;;4731217;30;20448;-77
2022/04/02 05:08:10;;;;;;;5.72;1.92;;;12.30;99.90;;;;;;4716215;30;20584;-77
2022/04/02 05:10:41;;;;;;;5.53;2.13;;;12.40;99.90;;;;;;4730825;30;20045;-76
2022/04/02 05:13:14;;;;;;;7.95;2.47;;;12.40;99.90;;;;;;4730992;30;20052;-77
2022/04/02 05:15:46;;;;;;;6.05;2.00;;;12.60;99.90;;;;;;4702478;30;20096;-77
2022/04/02 05:18:15;;;;;;;4.78;2.67;;;12.80;99.90;;;;;;4731255;30;20147;-76
2022/04/02 05:20:43;;;;;;;8.07;2.28;;;12.90;99.90;;;;;;4716476;30;20063;-78
2022/04/02 05:23:12;;;;;;;8.43;2.30;;;13.10;99.90;;;;;;4716975;30;20107;-78
2022/04/02 05:25:40;;;;;;;6.85;2.58;;;13.30;99.90;;;;;;4716703;30;20063;-77
2022/04/02 05:28:11;;;;;;;9.45;2.13;;;13.30;99.90;;;;;;4716206;30;20477;-76
2022/04/02 05:30:41;;;;;;;5.85;2.58;;;13.40;99.90;;;;;;4717347;30;20416;-76
2022/04/02 05:33:08;;;;;;;9.23;2.90;;;13.40;99.90;;;;;;4716679;30;20056;-76
2022/04/02 05:35:48;;;;;;;9.50;2.28;;;13.40;99.90;;;;;;4731194;30;20060;-77
2022/04/02 05:38:16;;;;;;;6.97;1.70;;;13.60;99.90;;;;;;4716479;30;20106;-76
2022/04/02 05:40:43;;;;;;;8.50;2.70;;;13.80;99.90;;;;;;4702544;30;20088;-78
2022/04/02 05:43:11;;;;;;;6.00;3.15;;;13.90;99.90;;;;;;4716270;30;20493;-76
2022/04/02 05:45:39;;;;;;;5.10;2.28;;;14.10;99.90;;;;;;4701518;30;20516;-76
2022/04/02 05:48:07;;;;;;;8.75;2.20;;;14.30;99.90;;;;;;4730630;30;20139;-78
2022/04/02 05:50:34;;;;;;;7.82;2.00;;;14.30;99.80;;;;;;4704338;30;20099;-77
2022/04/02 05:53:03;;;;;;;6.32;2.47;;;14.30;99.50;;;;;;4735699;30;20045;-76
2022/04/02 05:55:32;;;;;;;7.05;1.52;;;14.50;99.30;;;;;;4734285;30;20455;-76
2022/04/02 05:58:00;;;;;;;9.48;2.45;;;14.50;99.00;;;;;;4723015;30;20084;-76
2022/04/02 06:00:28;;;;;;;5.43;2.22;;;14.80;99.00;;;;;;4716350;30;20064;-76
2022/04/02 06:02:58;;;;;;;10.75;2.50;;;14.90;99.00;;;;;;4717087;30;20057;-79
2022/04/02 06:05:26;;;;;;;8.95;1.92;;;14.90;98.80;;;;;;4701965;30;20852;-77
2022/04/02 06:07:53;;;;;;;4.97;1.70;;;15.10;98.80;;;;;;4717746;30;20053;-76
2022/04/02 06:10:21;;;;;;;6.32;1.73;;;15.10;98.70;;;;;;4716905;30;20073;-76
2022/04/02 06:12:51;;;;;;;6.93;1.85;;;15.20;98.40;;;;;;4702213;30;20484;-77
2022/04/02 06:15:20;;;;;;;6.03;2.38;;;15.30;98.50;;;;;;4730364;30;20057;-77
2022/04/02 06:17:47;;;;;;;5.68;1.40;;;15.40;98.30;;;;;;4716879;30;20127;-81
2022/04/02 06:20:15;;;;;;;4.35;1.90;;;15.50;98.40;;;;;;4716907;30;20057;-79
2022/04/02 06:22:43;;;;;;;5.35;2.88;;;15.60;98.40;;;;;;4717349;30;20145;-76
2022/04/02 06:25:10;;;;;;;7.53;2.30;;;15.80;98.30;;;;;;4717536;30;20077;-76
2022/04/02 06:27:45;;;;;;;6.78;2.17;;;15.90;98.40;;;;;;4717302;30;20505;-78
2022/04/02 06:30:17;;;;;;;6.82;2.35;;;16.10;98.30;;;;;;4716487;30;20148;-78
2022/04/02 06:32:47;;;;;;;4.65;2.25;;;16.10;98.10;;;;;;4701670;30;20068;-77
2022/04/02 06:35:18;;;;;;;4.78;1.83;;;16.30;97.90;;;;;;4729846;30;20091;-79
2022/04/02 06:37:50;;;;;;;3.83;2.15;;;16.40;97.70;;;;;;4702829;30;20401;-78
2022/04/02 06:40:17;;;;;;;6.53;2.17;;;16.60;97.20;;;;;;4728090;30;20048;-78
2022/04/02 06:42:45;;;;;;;3.03;1.80;;;16.60;96.50;;;;;;4731792;30;20061;-79
2022/04/02 06:45:26;;;;;;;10.40;1.95;;;16.50;95.70;;;;;;4727706;30;20070;-78
2022/04/02 06:47:54;;;;;;;3.50;1.35;;;16.40;94.40;;;;;;4732261;30;20108;-78
2022/04/02 06:50:25;;;;;;;6.93;2.50;;;16.40;94.10;;;;;;4738595;30;20496;-77
2022/04/02 06:52:53;;;;;;;6.30;2.03;;;16.30;93.90;;;;;;4732185;30;20052;-77
2022/04/02 06:55:23;;;;;;;3.53;1.63;;;16.20;93.90;;;;;;4714392;30;20406;-78
2022/04/02 06:57:54;;;;;;;10.88;1.42;;;16.20;93.90;;;;;;4733799;30;20056;-79
2022/04/02 07:00:23;;;;;;;5.80;1.70;;;16.30;93.70;;;;;;4735999;30;20669;-78
2022/04/02 07:02:51;;;;;;;4.28;1.60;;;16.50;93.90;;;;;;4688250;30;20048;-78
2022/04/02 07:05:21;;;;;;;11.23;2.95;;;16.60;93.30;;;;;;4723416;30;20063;-79
2022/04/02 07:07:51;;;;;;;5.32;1.48;;;16.60;92.90;;;;;;4731423;30;20424;-78
2022/04/02 07:10:20;;;;;;;4.25;1.60;;;16.50;92.60;;;;;;4731822;30;20520;-79
2022/04/02 07:12:47;;;;;;;6.05;1.48;;;16.70;93.10;;;;;;4715925;30;20053;-78
2022/04/02 07:15:15;;;;;;;3.10;1.58;;;16.70;93.20;;;;;;4716480;30;20092;-77
2022/04/02 07:17:44;;;;;;;4.57;1.83;;;16.90;93.50;;;;;;4716869;30;20076;-77
2022/04/02 07:20:17;;;;;;;5.93;1.70;;;17.00;92.70;;;;;;4722618;30;20068;-77
2022/04/02 07:22:46;;;;;;;4.30;1.38;;;17.00;92.70;;;;;;4731687;30;20064;-78
2022/04/02 07:25:16;;;;;;;3.58;1.58;;;16.80;92.60;;;;;;4713308;30;20076;-76
2022/04/02 07:27:45;;;;;;;7.38;2.30;;;16.90;93.20;;;;;;4719012;30;20048;-77
2022/04/02 07:30:14;;;;;;;5.13;1.95;;;16.90;93.30;;;;;;4736629;30;20057;-77
2022/04/02 07:32:42;;;;;;;4.38;1.92;;;17.00;92.90;;;;;;4731767;30;20862;-77
2022/04/02 07:35:10;;;;;;;4.35;1.70;;;17.20;93.10;;;;;;4732028;30;20052;-76
2022/04/02 07:38:02;;;;;;;4.88;2.47;;;17.30;93.00;;;;;;4703674;30;20061;-76
2022/04/02 07:41:11;;;;;;;6.88;1.92;;;17.40;93.10;;;;;;4718596;30;20057;-76
2022/04/02 07:43:58;;;;;;;5.65;2.05;;;17.30;92.70;;;;;;4713900;30;20056;-78
2022/04/02 07:46:30;;;;;;;4.10;1.48;;;16.90;93.00;;;;;;4718377;30;20139;-76
2022/04/02 07:49:03;;;;;;;4.13;1.60;;;16.90;93.30;;;;;;4704115;30;20059;-78
2022/04/02 07:51:38;;;;;;;4.13;1.40;;;16.90;93.60;;;;;;4718821;30;20400;-75
2022/04/02 07:54:12;;;;;;;9.80;2.13;;;17.30;93.30;;;;;;4711092;30;20448;-81
2022/04/02 07:56:50;;;;;;;3.35;1.17;;;17.00;92.40;;;;;;4712260;30;20175;-76
2022/04/02 07:59:42;;;;;;;2.05;1.23;;;17.40;92.80;;;;;;4728813;30;20487;-75
2022/04/02 08:05:07;;;;;;;5.05;1.58;;;17.60;92.80;;;;;;4728624;30;20516;-75
2022/04/02 08:07:36;;;;;;;6.93;1.45;;;17.70;92.50;;;;;;4732924;30;20079;-74
2022/04/02 08:10:10;;;;;;;2.10;1.30;;;17.50;92.60;;;;;;4733057;30;20098;-74
2022/04/02 08:12:42;;;;;;;4.22;1.70;;;17.40;92.40;;;;;;4715860;30;20051;-76
2022/04/02 08:15:13;;;;;;;5.43;1.55;;;17.50;92.90;;;;;;4732111;30;20069;-73
2022/04/02 08:17:42;;;;;;;4.22;2.45;;;17.50;92.40;;;;;;4699596;30;20151;-73
2022/04/02 08:20:15;;;;;;;2.78;1.23;;;17.40;91.00;;;;;;4687139;30;20064;-75
2022/04/02 08:22:44;;;;;;;5.95;2.55;;;17.40;91.90;;;;;;4708584;30;20061;-73
2022/04/02 08:25:13;;;;;;;3.92;1.30;;;17.40;91.70;;;;;;4718619;30;20044;-73
2022/04/02 08:28:03;;;;;;;3.03;1.50;;;17.70;92.50;;;;;;4733131;30;20125;-73
2022/04/02 08:30:33;;;;;;;3.50;1.38;;;18.00;90.20;;;;;;4733058;30;20037;-72
2022/04/02 08:33:19;;;;;;;1.77;1.23;;;18.10;88.30;;;;;;4730941;30;20095;-72
2022/04/02 08:36:16;;;;;;;5.50;1.88;;;17.70;84.60;;;;;;4703881;30;20056;-72
2022/04/02 08:38:50;;;;;;;;;;;17.90;87.10;;;;;;4717659;30;20415;-75
2022/04/02 08:41:54;;;;;;;4.43;1.77;;;18.10;90.20;;;;;;4716087;30;19927;-73
2022/04/02 08:44:41;;;;;;;6.97;1.77;;;18.20;89.70;;;;;;4717217;30;20061;-74
2022/04/02 08:47:44;;;;;;;4.80;1.90;;;17.90;88.90;;;;;;4732697;30;20083;-72
2022/04/02 08:50:17;;;;;;;15.93;1.80;;;17.60;87.40;;;;;;4714821;30;20065;-75
2022/04/02 08:52:56;;;;;;;4.90;1.95;;;17.60;87.10;;;;;;4709192;30;20048;-73
2022/04/02 08:55:53;;;;;;;8.30;2.30;;;17.80;87.70;;;;;;4731562;30;20076;-74
2022/04/02 08:58:21;;;;;;;;;;;17.90;89.00;;;;;;4731247;30;20061;-74
2022/04/02 09:01:07;;;;;;;4.38;1.58;;;17.70;89.60;;;;;;4727344;30;20314;-73
2022/04/02 09:04:05;;;;;;;7.78;1.75;;;17.60;90.30;;;;;;4713138;30;20163;-75
2022/04/02 09:07:07;;;;;;;4.05;1.60;;;17.90;90.70;;;;;;4732644;30;20064;-73
2022/04/02 09:09:57;;;;;;;7.40;2.30;;;18.20;89.40;;;;;;4701390;30;20060;-73
2022/04/02 09:12:35;;;;;;;8.15;2.05;;;18.10;89.40;;;;;;4717443;30;20519;-73
2022/04/02 09:15:23;;;;;;;5.55;1.83;;;17.90;88.10;;;;;;4717704;30;20568;-73
2022/04/02 09:18:37;;;;;;;3.10;1.52;;;17.50;89.60;;;;;;4700725;30;20106;-72
2022/04/02 09:21:32;;;;;;;6.07;3.00;;;17.60;90.50;;;;;;4710380;30;20045;-73
2022/04/02 09:24:03;;;;;;;4.18;2.03;;;17.40;90.60;;;;;;4718503;30;20053;-72
2022/04/02 09:26:50;;;;;;;7.43;1.92;;;17.20;88.10;;;;;;4736700;30;20057;-72
2022/04/02 09:29:48;;;;;;;6.40;2.17;;;17.30;89.10;;;;;;4704336;30;20064;-72
2022/04/02 09:32:53;;;;;;;6.25;2.03;;;17.50;87.80;;;;;;4712400;30;20087;-73
2022/04/02 09:35:36;;;;;;;6.75;1.90;;;17.30;84.00;;;;;;4718750;30;20057;-72
2022/04/02 09:38:30;;;;;;;4.72;2.88;;;17.20;84.00;;;;;;4727765;30;20057;-73
2022/04/02 09:41:28;;;;;;;6.00;2.35;;;17.50;85.20;;;;;;4694722;30;20060;-74
2022/04/02 09:44:29;;;;;;;4.72;2.20;;;17.60;82.90;;;;;;4700795;30;20152;-75
2022/04/02 09:47:00;;;;;;;6.47;1.83;;;17.70;82.70;;;;;;4734127;30;20469;-77
2022/04/02 09:49:57;;;;;;;6.10;1.88;;;17.80;81.80;;;;;;4723806;30;20138;-77
2022/04/02 09:52:26;;;;;;;7.28;2.08;;;18.00;85.80;;;;;;4717167;30;20065;-76
2022/04/02 09:54:53;;;;;;;5.85;1.90;;;18.10;82.90;;;;;;4716103;30;20692;-78
2022/04/02 09:57:37;;;;;;;4.35;2.13;;;18.00;83.10;;;;;;4733355;30;20087;-79
2022/04/02 10:00:07;;;;;;;4.55;1.73;;;17.80;81.80;;;;;;4713385;30;20156;-72
2022/04/02 10:03:01;;;;;;;4.80;2.13;;;17.70;79.60;;;;;;4717842;30;20105;-73
2022/04/02 10:06:11;;;;;;;4.82;1.98;;;17.50;77.50;;;;;;4715054;30;20064;-75
2022/04/02 10:08:58;;;;;;;6.05;2.88;;;17.60;77.80;;;;;;4733111;30;20127;-75
2022/04/02 10:11:28;;;;;;;3.15;1.67;;;17.50;75.40;;;;;;4718813;30;20059;-73
2022/04/02 10:14:02;;;;;;;3.85;2.08;;;17.40;74.80;;;;;;4727261;30;20053;-77
2022/04/02 10:16:31;;;;;;;7.53;2.40;;;17.50;75.90;;;;;;4701599;30;20405;-73
2022/04/02 10:19:01;;;;;;;3.95;1.90;;;17.70;79.50;;;;;;4733297;30;20064;-75
2022/04/02 10:21:35;;;;;;;9.88;2.20;;;17.90;78.50;;;;;;4733116;30;20048;-74
2022/04/02 10:24:23;;;;;;;6.70;2.20;;;17.70;76.40;;;;;;4702555;30;20139;-75
2022/04/02 10:26:56;;;;;;;6.82;1.92;;;17.40;78.50;;;;;;4731185;30;20049;-75
2022/04/02 10:29:46;;;;;;;6.53;2.17;;;17.40;76.60;;;;;;4710446;30;20478;-74
2022/04/02 10:32:16;;;;;;;4.63;2.20;;;17.00;75.80;;;;;;4718484;30;20069;-76
2022/04/02 10:34:52;;;;;;;8.02;2.50;;;17.20;79.90;;;;;;4733629;30;20132;-76
2022/04/02 10:37:25;;;;;;;11.05;2.05;;;17.10;80.60;;;;;;4718959;30;20091;-79
2022/04/02 10:39:58;;;;;;;4.80;1.75;;;17.20;80.20;;;;;;4708907;30;20516;-72
2022/04/02 10:42:35;;;;;;;4.30;1.75;;;17.40;82.50;;;;;;4690290;30;20077;-73
2022/04/02 10:45:12;;;;;;;4.38;1.58;;;17.60;81.20;;;;;;4725092;30;20080;-74
2022/04/02 10:48:10;;;;;;;6.00;2.15;;;17.50;79.50;;;;;;4716917;30;20527;-76
2022/04/02 10:50:42;;;;;;;5.20;1.95;;;17.40;79.00;;;;;;4702298;30;20413;-74
2022/04/02 10:53:12;;;;;;;4.30;1.92;;;17.20;76.50;;;;;;4731795;30;20523;-74
2022/04/02 10:55:49;;;;;;;4.18;1.55;;;17.10;75.60;;;;;;4731299;30;20057;-75
2022/04/02 10:58:21;;;;;;;6.03;2.10;;;17.00;78.80;;;;;;4703259;30;20064;-74
2022/04/02 11:00:54;;;;;;;5.72;1.70;;;17.00;78.20;;;;;;4730400;30;20159;-75
2022/04/02 11:03:57;;;;;;;2.45;1.58;;;17.10;72.90;;;;;;4722901;30;20056;-73
2022/04/02 11:06:48;;;;;;;3.17;1.38;;;17.00;71.50;;;;;;4717660;30;20813;-73
2022/04/02 11:09:39;;;;;;;3.60;1.42;;;16.80;74.60;;;;;;4714469;30;20056;-74
2022/04/02 11:12:15;;;;;;;6.97;1.40;;;16.80;76.30;;;;;;4721390;30;20045;-75
2022/04/02 11:14:49;;;;;;;2.88;1.52;;;16.90;74.80;;;;;;4715157;30;20106;-74
2022/04/02 11:17:32;;;;;;;4.78;1.67;;;17.00;76.10;;;;;;4715941;30;20440;-74
2022/04/02 11:20:06;;;;;;;4.50;1.60;;;16.80;76.00;;;;;;4710179;30;20084;-73
2022/04/02 11:22:52;;;;;;;5.13;2.05;;;16.80;75.90;;;;;;4731968;30;20045;-76
2022/04/02 11:25:31;;;;;;;5.47;2.38;;;16.80;75.80;;;;;;4692205;30;20072;-75
2022/04/02 11:28:08;;;;;;;2.90;1.60;;;16.90;76.70;;;;;;4731039;30;20051;-74
2022/04/02 11:30:41;;;;;;;4.28;1.88;;;16.70;75.70;;;;;;4702472;30;20130;-74
2022/04/02 11:33:17;;;;;;;3.63;1.42;;;16.80;75.60;;;;;;4730929;30;20091;-73
2022/04/02 11:35:55;;;;;;;4.07;1.70;;;16.90;74.10;;;;;;4716926;30;20048;-74
2022/04/02 11:38:32;;;;;;;8.88;2.33;;;17.10;76.50;;;;;;4730363;30;20045;-74
2022/04/02 11:41:15;;;;;;;4.15;2.53;;;17.20;77.00;;;;;;4717032;30;20554;-75
2022/04/02 11:43:45;;;;;;;6.38;2.10;;;17.30;75.30;;;;;;4717032;30;20063;-73
2022/04/02 11:46:15;;;;;;;5.25;1.77;;;17.30;75.30;;;;;;4716656;30;20520;-73
2022/04/02 11:48:59;;;;;;;4.72;1.63;;;17.10;75.00;;;;;;4730895;30;20056;-75
2022/04/02 11:51:29;;;;;;;6.95;1.77;;;17.10;76.00;;;;;;4732267;30;20056;-73
2022/04/02 11:54:04;;;;;;;6.10;1.75;;;17.10;76.10;;;;;;4703777;30;20057;-73
2022/04/02 11:56:39;;;;;;;2.42;1.35;;;17.10;75.40;;;;;;4713278;30;20564;-73
2022/04/02 11:59:09;;;;;;;2.38;1.27;;;17.10;74.60;;;;;;4689258;30;20072;-73
2022/04/02 12:01:42;;;;;;;2.53;1.10;;;17.00;72.90;;;;;;4716103;30;20111;-74
2022/04/02 12:04:13;;;;;;;4.35;1.75;;;16.90;73.10;;;;;;4720961;30;20107;-72
2022/04/02 12:06:43;;;;;;;3.95;2.05;;;17.00;75.20;;;;;;4740962;30;20059;-74
2022/04/02 12:09:11;;;;;;;4.70;1.42;;;17.20;75.80;;;;;;4711972;30;20053;-72
2022/04/02 12:11:48;;;;;;;5.03;1.58;;;17.40;75.30;;;;;;4725076;30;20044;-74
2022/04/02 12:14:39;;;;;;;7.15;1.83;;;17.60;73.80;;;;;;4717285;30;20056;-74
2022/04/02 12:17:11;;;;;;;4.53;2.20;;;17.60;73.80;;;;;;4714970;30;20060;-75
2022/04/02 12:19:53;;;;;;;5.10;2.10;;;17.40;73.70;;;;;;4721631;30;20104;-72
2022/04/02 12:22:27;;;;;;;5.57;1.80;;;17.00;73.40;;;;;;4702841;30;20064;-75
2022/04/02 12:25:04;;;;;;;4.00;1.65;;;16.90;73.00;;;;;;4717816;30;20456;-72
2022/04/02 12:27:33;;;;;;;;;;;16.80;74.20;;;;;;4696496;30;20082;-73
2022/04/02 12:30:07;;;;;;;5.60;1.92;;;16.90;73.10;;;;;;4727092;30;20318;-76
2022/04/02 12:32:44;;;;;;;4.82;1.85;;;16.90;74.00;;;;;;4702483;30;20514;-74
2022/04/02 12:35:21;;;;;;;3.80;2.03;;;16.80;75.10;;;;;;4720848;30;20144;-76
2022/04/02 12:37:54;;;;;;;4.57;2.00;;;16.90;74.80;;;;;;4714558;30;20077;-73
2022/04/02 12:40:23;;;;;;;5.55;2.45;;;16.80;77.40;;;;;;4714603;30;20057;-69
2022/04/02 12:42:53;;;;;;;2.97;1.45;;;16.80;77.30;;;;;;4703361;30;20056;-73
2022/04/02 12:45:26;;;;;;;5.22;2.10;;;16.70;77.50;;;;;;4725895;30;20077;-73
2022/04/02 12:47:57;;;;;;;5.82;2.40;;;16.90;78.00;;;;;;4725758;30;20148;-72
2022/04/02 12:50:26;;;;;;;4.38;2.13;;;17.00;77.70;;;;;;4730491;30;20135;-73
2022/04/02 12:52:54;;;;;;;2.60;1.42;;;16.90;76.40;;;;;;4713643;30;20168;-74
2022/04/02 12:55:26;;;;;;;3.63;1.88;;;17.00;76.20;;;;;;4716187;30;20479;-76
2022/04/02 12:58:00;;;;;;;7.15;2.17;;;17.10;77.20;;;;;;4710737;30;20048;-74
2022/04/02 13:00:38;;;;;;;8.60;2.78;;;17.10;78.30;;;;;;4704485;30;20120;-74
2022/04/02 13:03:06;;;;;;;3.97;2.13;;;17.30;80.30;;;;;;4719265;30;20052;-72
2022/04/02 13:05:46;;;;;;;5.00;1.90;;;17.10;80.30;;;;;;4718431;30;20152;-73
2022/04/02 13:08:17;;;;;;;2.35;1.40;;;17.10;80.10;;;;;;4727488;30;20513;-73
2022/04/02 13:10:46;;;;;;;7.13;1.92;;;17.00;79.70;;;;;;4725793;30;20064;-72
2022/04/02 13:13:15;;;;;;;3.08;1.30;;;16.80;76.50;;;;;;4716866;30;20065;-72
2022/04/02 13:15:51;;;;;;;2.58;1.55;;;16.80;77.80;;;;;;4731658;30;20440;-73
2022/04/02 13:21:09;;;;;;;3.75;1.50;;;16.80;77.30;;;;;;4723038;30;20540;-76
2022/04/02 13:23:40;;;;;;;5.28;2.05;;;16.90;79.40;;;;;;4734733;30;20067;-73
2022/04/02 13:26:16;;;;;;;7.88;1.88;;;16.90;80.40;;;;;;4719993;30;20467;-73
2022/04/02 13:29:09;;;;;;;3.40;1.98;;;17.00;79.90;;;;;;4732042;30;20157;-72
2022/04/02 13:32:08;;;;;;;9.93;2.45;;;16.80;81.60;;;;;;4716863;30;20231;-72